Time;durP1;ratioP1;P1;durP2;ratioP2;P2;SDS_P1;SDS_P2;PMS_P1;PMS_P2;Temp;Humidity;BMP_temperature;BMP_pressure;BME280_temperature;BME280_humidity;BME280_pressure;Samples;Min_cycle;Max_cycle;Signal;HPM_P1;HPM_P2
2021/11/19 00:00:11;;;;;;;0.00;0.00;;;11.40;99.90;;;;;;5093595;28;20036;-80
2021/11/19 00:02:37;;;;;;;0.30;0.15;;;11.40;99.90;;;;;;5109624;28;20519;-81
2021/11/19 00:05:06;;;;;;;0.00;0.00;;;11.40;99.90;;;;;;5076335;28;20052;-80
2021/11/19 00:07:34;;;;;;;0.10;0.10;;;11.40;99.90;;;;;;5093652;28;20097;-81
2021/11/19 00:10:02;;;;;;;0.00;0.00;;;11.50;99.90;;;;;;5109768;28;20044;-80
2021/11/19 00:12:29;;;;;;;0.00;0.00;;;11.40;99.90;;;;;;5109908;28;20039;-80
2021/11/19 00:14:56;;;;;;;0.00;0.00;;;11.50;99.90;;;;;;5093197;28;20442;-81
2021/11/19 00:17:23;;;;;;;0.00;0.00;;;11.50;99.90;;;;;;5109803;28;20690;-81
2021/11/19 00:19:50;;;;;;;0.00;0.00;;;11.50;99.90;;;;;;5076201;28;20128;-80
2021/11/19 00:22:19;;;;;;;0.00;0.00;;;11.50;99.90;;;;;;5093089;28;20040;-80
2021/11/19 00:24:46;;;;;;;0.00;0.00;;;11.50;99.90;;;;;;5109229;28;20047;-79
2021/11/19 00:27:16;;;;;;;0.00;0.00;;;11.50;99.90;;;;;;5109476;28;20412;-80
2021/11/19 00:29:44;;;;;;;0.00;0.00;;;11.50;99.90;;;;;;5126304;28;20086;-80
2021/11/19 00:32:11;;;;;;;0.00;0.00;;;11.50;99.90;;;;;;5126657;28;20036;-81
2021/11/19 00:34:39;;;;;;;0.10;0.10;;;11.50;99.90;;;;;;5109417;28;20093;-80
2021/11/19 00:37:06;;;;;;;1.08;0.50;;;11.50;99.90;;;;;;5109480;28;20069;-80
2021/11/19 00:39:33;;;;;;;0.00;0.00;;;11.60;99.90;;;;;;5092797;28;20051;-80
2021/11/19 00:42:01;;;;;;;0.00;0.00;;;11.60;99.90;;;;;;5092341;28;20032;-80
2021/11/19 00:44:29;;;;;;;0.00;0.00;;;11.60;99.90;;;;;;5109418;28;20104;-80
2021/11/19 00:46:56;;;;;;;0.00;0.00;;;11.60;99.90;;;;;;5092821;28;20448;-81
2021/11/19 00:49:26;;;;;;;0.00;0.00;;;11.60;99.90;;;;;;5126359;28;20044;-80
2021/11/19 00:51:55;;;;;;;0.08;0.08;;;11.60;99.90;;;;;;5109221;28;20086;-81
2021/11/19 00:54:23;;;;;;;0.00;0.00;;;11.60;99.90;;;;;;5109988;28;20036;-82
2021/11/19 00:56:56;;;;;;;0.00;0.00;;;11.60;99.90;;;;;;5126281;28;20048;-79
2021/11/19 00:59:27;;;;;;;0.00;0.00;;;11.60;99.90;;;;;;5126350;28;20940;-81
2021/11/19 01:02:01;;;;;;;0.00;0.00;;;11.60;99.90;;;;;;5108749;28;20042;-81
2021/11/19 01:04:28;;;;;;;0.00;0.00;;;11.60;99.90;;;;;;5109051;28;20398;-81
2021/11/19 01:06:55;;;;;;;0.00;0.00;;;11.60;99.90;;;;;;5092085;28;20102;-80
2021/11/19 01:09:25;;;;;;;0.00;0.00;;;11.60;99.90;;;;;;5075998;28;20404;-80
2021/11/19 01:11:55;;;;;;;0.08;0.08;;;11.50;99.90;;;;;;5109113;28;20040;-81
2021/11/19 01:14:31;;;;;;;0.00;0.00;;;11.50;99.90;;;;;;5108956;28;20038;-80
2021/11/19 01:17:02;;;;;;;0.00;0.00;;;11.50;99.90;;;;;;5108621;28;20055;-80
2021/11/19 01:19:37;;;;;;;0.03;0.03;;;11.50;99.90;;;;;;5109489;28;20036;-81
2021/11/19 01:22:09;;;;;;;0.00;0.00;;;11.60;99.90;;;;;;5108938;28;20126;-81
2021/11/19 01:24:37;;;;;;;0.00;0.00;;;11.60;99.90;;;;;;5125732;28;20039;-80
2021/11/19 01:27:05;;;;;;;0.00;0.00;;;11.60;99.90;;;;;;5092617;28;20039;-80
2021/11/19 01:29:31;;;;;;;0.00;0.00;;;11.50;99.90;;;;;;5109318;28;20038;-81
2021/11/19 01:32:03;;;;;;;0.05;0.05;;;11.50;99.90;;;;;;5126027;28;20497;-81
2021/11/19 01:34:30;;;;;;;0.00;0.00;;;11.50;99.90;;;;;;5108996;28;20036;-80
2021/11/19 01:36:57;;;;;;;0.20;0.20;;;11.60;99.90;;;;;;5092296;28;20047;-80
2021/11/19 01:39:27;;;;;;;0.00;0.00;;;11.60;99.90;;;;;;5092358;28;20051;-81
2021/11/19 01:42:12;;;;;;;0.10;0.10;;;11.60;99.90;;;;;;5108868;28;20040;-81
2021/11/19 01:44:52;;;;;;;0.00;0.00;;;11.60;99.90;;;;;;5125481;28;20051;-80
2021/11/19 01:47:20;;;;;;;0.15;0.10;;;11.60;99.90;;;;;;5108916;28;20051;-80
2021/11/19 01:49:49;;;;;;;0.00;0.00;;;11.60;99.90;;;;;;5108801;28;20385;-81
2021/11/19 01:52:34;;;;;;;0.00;0.00;;;11.60;99.90;;;;;;5110669;28;20054;-80
2021/11/19 01:55:12;;;;;;;0.00;0.00;;;11.60;99.90;;;;;;5129371;28;20047;-81
2021/11/19 01:57:43;;;;;;;0.00;0.00;;;11.60;99.90;;;;;;5129271;28;20047;-80
2021/11/19 02:00:15;;;;;;;0.00;0.00;;;11.60;99.90;;;;;;5112367;28;20036;-80
2021/11/19 02:02:46;;;;;;;0.08;0.08;;;11.60;99.90;;;;;;5112266;28;20362;-81
2021/11/19 02:05:22;;;;;;;0.10;0.10;;;11.60;99.90;;;;;;5112035;28;20059;-80
2021/11/19 02:07:52;;;;;;;0.00;0.00;;;11.60;99.90;;;;;;5128882;28;20043;-80
2021/11/19 02:10:28;;;;;;;0.00;0.00;;;11.60;99.90;;;;;;5117241;28;20084;-81
2021/11/19 02:13:19;;;;;;;0.00;0.00;;;11.60;99.90;;;;;;5114293;28;20086;-81
2021/11/19 02:15:54;;;;;;;0.25;0.08;;;11.60;99.90;;;;;;5114239;28;20505;-82
2021/11/19 02:18:29;;;;;;;0.00;0.00;;;11.60;99.90;;;;;;5130475;28;20039;-82
2021/11/19 02:21:03;;;;;;;0.10;0.10;;;11.60;99.90;;;;;;5128672;28;20126;-81
2021/11/19 02:23:42;;;;;;;0.00;0.00;;;11.60;99.90;;;;;;5112099;28;20075;-80
2021/11/19 02:26:13;;;;;;;0.00;0.00;;;11.60;99.90;;;;;;5128844;28;20040;-80
2021/11/19 02:28:42;;;;;;;0.00;0.00;;;11.60;99.90;;;;;;5128742;28;20446;-81
2021/11/19 02:31:12;;;;;;;0.20;0.20;;;11.60;99.90;;;;;;5112110;28;20043;-81
2021/11/19 02:33:41;;;;;;;0.00;0.00;;;11.60;99.90;;;;;;5111982;28;20035;-81
2021/11/19 02:36:14;;;;;;;0.10;0.10;;;11.60;99.90;;;;;;5111263;28;20377;-80
2021/11/19 02:38:59;;;;;;;0.00;0.00;;;11.60;99.90;;;;;;5128628;28;20055;-81
2021/11/19 02:41:29;;;;;;;0.00;0.00;;;11.60;99.90;;;;;;5111606;28;20181;-81
2021/11/19 02:44:04;;;;;;;0.00;0.00;;;11.60;99.90;;;;;;5111256;28;20270;-81
2021/11/19 02:46:36;;;;;;;0.00;0.00;;;11.60;99.90;;;;;;5128490;28;20036;-81
2021/11/19 02:49:03;;;;;;;0.10;0.10;;;11.60;99.90;;;;;;5111449;28;20091;-80
2021/11/19 02:51:33;;;;;;;0.00;0.00;;;11.60;99.90;;;;;;5111340;28;20396;-81
2021/11/19 02:54:01;;;;;;;0.38;0.10;;;11.60;99.90;;;;;;5095199;28;20036;-80
2021/11/19 02:56:29;;;;;;;0.00;0.00;;;11.60;99.90;;;;;;5094469;28;20055;-80
2021/11/19 02:58:59;;;;;;;0.65;0.20;;;11.60;99.90;;;;;;5110708;28;20385;-80
2021/11/19 03:01:30;;;;;;;0.00;0.00;;;11.70;99.90;;;;;;5111222;28;20073;-80
2021/11/19 03:04:03;;;;;;;0.05;0.05;;;11.70;99.90;;;;;;5109467;28;20048;-79
2021/11/19 03:06:32;;;;;;;0.00;0.00;;;11.70;99.90;;;;;;5128111;28;20055;-82
2021/11/19 03:08:59;;;;;;;0.00;0.00;;;11.70;99.90;;;;;;5110484;28;20044;-81
2021/11/19 03:11:26;;;;;;;0.00;0.00;;;11.70;99.90;;;;;;5077825;28;20050;-81
2021/11/19 03:13:53;;;;;;;0.00;0.00;;;11.70;99.90;;;;;;5110413;28;20093;-80
2021/11/19 03:16:19;;;;;;;0.00;0.00;;;11.70;99.90;;;;;;5094084;28;20101;-81
2021/11/19 03:18:46;;;;;;;0.00;0.00;;;11.70;99.90;;;;;;5110814;28;20036;-81
2021/11/19 03:21:16;;;;;;;0.00;0.00;;;11.70;99.90;;;;;;5093658;28;20044;-80
2021/11/19 03:23:46;;;;;;;0.00;0.00;;;11.70;99.90;;;;;;5110637;28;20047;-81
2021/11/19 03:26:14;;;;;;;0.00;0.00;;;11.70;99.90;;;;;;5110698;28;20581;-81
2021/11/19 03:28:44;;;;;;;0.00;0.00;;;11.70;99.90;;;;;;5094139;28;20108;-80
2021/11/19 03:31:13;;;;;;;0.10;0.10;;;11.70;99.90;;;;;;5093716;28;20894;-80
2021/11/19 03:33:43;;;;;;;0.00;0.00;;;11.70;99.90;;;;;;5110309;28;20400;-81
2021/11/19 03:36:12;;;;;;;0.10;0.10;;;11.70;99.90;;;;;;5110100;28;20797;-80
2021/11/19 03:38:42;;;;;;;0.20;0.20;;;11.70;99.90;;;;;;5127748;28;20034;-79
2021/11/19 03:41:11;;;;;;;0.08;0.08;;;11.70;99.90;;;;;;5110274;28;20071;-80
2021/11/19 03:43:46;;;;;;;0.00;0.00;;;11.70;99.90;;;;;;5127149;28;20093;-81
2021/11/19 03:46:17;;;;;;;0.00;0.00;;;11.70;99.90;;;;;;5110068;28;20044;-82
2021/11/19 03:48:44;;;;;;;0.00;0.00;;;11.70;99.90;;;;;;5127164;28;20036;-81
2021/11/19 03:51:14;;;;;;;0.47;0.47;;;11.70;99.90;;;;;;5109655;28;20663;-80
2021/11/19 03:53:41;;;;;;;0.00;0.00;;;11.70;99.90;;;;;;5126947;28;20040;-81
2021/11/19 03:56:08;;;;;;;0.30;0.22;;;11.70;99.90;;;;;;5127039;28;20080;-81
2021/11/19 03:58:37;;;;;;;0.00;0.00;;;11.70;99.90;;;;;;5110255;28;20040;-81
2021/11/19 04:01:12;;;;;;;0.00;0.00;;;11.70;99.90;;;;;;5126625;28;20058;-80
2021/11/19 04:03:39;;;;;;;0.05;0.05;;;11.70;99.90;;;;;;5109593;28;20043;-79
2021/11/19 04:06:06;;;;;;;0.00;0.00;;;11.70;99.90;;;;;;5126266;28;20496;-79
2021/11/19 04:08:33;;;;;;;0.10;0.10;;;11.70;99.90;;;;;;5126995;28;20036;-81
2021/11/19 04:11:00;;;;;;;0.00;0.00;;;11.70;99.90;;;;;;5092738;28;20044;-80
2021/11/19 04:13:27;;;;;;;0.00;0.00;;;11.70;99.90;;;;;;5109737;28;20138;-80
2021/11/19 04:15:57;;;;;;;0.03;0.03;;;11.70;99.90;;;;;;5076421;28;20040;-81
2021/11/19 04:18:25;;;;;;;0.10;0.10;;;11.70;99.90;;;;;;5109835;28;20423;-81
2021/11/19 04:20:52;;;;;;;0.00;0.00;;;11.70;99.90;;;;;;5109499;28;20039;-81
2021/11/19 04:23:20;;;;;;;0.00;0.00;;;11.60;99.90;;;;;;5092798;28;20040;-81
2021/11/19 04:25:47;;;;;;;0.00;0.00;;;11.70;99.90;;;;;;5093019;28;20127;-80
2021/11/19 04:28:14;;;;;;;0.00;0.00;;;11.60;99.90;;;;;;5126272;28;20055;-80
2021/11/19 04:30:46;;;;;;;0.00;0.00;;;11.60;99.90;;;;;;5126670;28;20040;-81
2021/11/19 04:33:14;;;;;;;0.10;0.10;;;11.60;99.90;;;;;;5109656;28;20077;-80
2021/11/19 04:35:40;;;;;;;0.10;0.10;;;11.70;99.90;;;;;;5126496;28;20040;-81
2021/11/19 04:38:07;;;;;;;0.10;0.10;;;11.60;99.90;;;;;;5109254;28;20062;-80
2021/11/19 04:40:35;;;;;;;0.00;0.00;;;11.60;99.90;;;;;;5109767;28;20051;-80
2021/11/19 04:43:06;;;;;;;0.00;0.00;;;11.60;99.90;;;;;;5126229;28;20044;-80
2021/11/19 04:45:34;;;;;;;0.03;0.03;;;11.60;99.90;;;;;;5126350;28;20087;-81
2021/11/19 04:48:02;;;;;;;0.00;0.00;;;11.60;99.90;;;;;;5093223;28;20085;-80
2021/11/19 04:50:32;;;;;;;0.20;0.17;;;11.60;99.90;;;;;;5126456;28;20040;-80
2021/11/19 04:52:59;;;;;;;0.03;0.03;;;11.60;99.90;;;;;;5109684;28;20086;-81
2021/11/19 04:55:28;;;;;;;0.28;0.10;;;11.60;99.90;;;;;;5125831;28;20047;-81
2021/11/19 04:57:55;;;;;;;0.00;0.00;;;11.50;99.90;;;;;;5109247;28;20036;-81
2021/11/19 05:00:36;;;;;;;0.15;0.10;;;11.50;99.90;;;;;;5092304;28;20037;-82
2021/11/19 05:03:07;;;;;;;0.00;0.00;;;11.50;99.90;;;;;;5109486;28;20051;-80
2021/11/19 05:05:35;;;;;;;0.00;0.00;;;11.50;99.90;;;;;;5109062;28;20048;-80
2021/11/19 05:08:04;;;;;;;0.15;0.15;;;11.40;99.90;;;;;;5109483;28;20553;-81
2021/11/19 05:10:32;;;;;;;0.00;0.00;;;11.40;99.90;;;;;;5109346;28;20499;-80
2021/11/19 05:13:00;;;;;;;0.00;0.00;;;11.40;99.90;;;;;;5092596;28;20089;-80
2021/11/19 05:15:28;;;;;;;0.00;0.00;;;11.40;99.90;;;;;;5108967;28;20480;-80
2021/11/19 05:17:55;;;;;;;0.00;0.00;;;11.30;99.90;;;;;;5109086;28;20032;-80
2021/11/19 05:20:24;;;;;;;0.00;0.00;;;11.30;99.90;;;;;;5108757;28;20412;-81
2021/11/19 05:22:52;;;;;;;0.00;0.00;;;11.30;99.90;;;;;;5125981;28;20404;-81
2021/11/19 05:25:22;;;;;;;0.00;0.00;;;11.30;99.90;;;;;;5125677;28;20036;-81
2021/11/19 05:27:49;;;;;;;0.10;0.10;;;11.30;99.90;;;;;;5111396;28;20555;-81
2021/11/19 05:30:16;;;;;;;0.10;0.10;;;11.30;99.90;;;;;;5079291;28;20209;-81
2021/11/19 05:32:44;;;;;;;0.05;0.05;;;11.30;99.90;;;;;;5096367;28;20052;-80
2021/11/19 05:35:12;;;;;;;0.10;0.10;;;11.30;99.90;;;;;;5129777;28;20040;-81
2021/11/19 05:37:39;;;;;;;0.00;0.00;;;11.30;99.90;;;;;;5112867;28;20412;-81
2021/11/19 05:40:09;;;;;;;0.10;0.10;;;11.30;99.90;;;;;;5112794;28;20036;-81
2021/11/19 05:42:35;;;;;;;0.00;0.00;;;11.30;99.90;;;;;;5129694;28;20048;-81
2021/11/19 05:45:05;;;;;;;0.00;0.00;;;11.30;99.90;;;;;;5096267;28;20177;-81
2021/11/19 05:47:31;;;;;;;0.00;0.00;;;11.20;99.90;;;;;;5112216;28;20039;-81
2021/11/19 05:50:00;;;;;;;0.03;0.03;;;11.20;99.90;;;;;;5096077;28;20047;-80
2021/11/19 05:52:27;;;;;;;0.00;0.00;;;11.20;99.90;;;;;;5095816;28;20040;-81
2021/11/19 05:54:54;;;;;;;0.95;0.08;;;11.20;99.90;;;;;;5079459;28;20046;-81
2021/11/19 05:57:21;;;;;;;0.00;0.00;;;11.10;99.90;;;;;;5112379;28;20040;-81
2021/11/19 05:59:48;;;;;;;0.20;0.15;;;11.20;99.90;;;;;;5095837;28;20050;-80
2021/11/19 06:02:17;;;;;;;0.00;0.00;;;11.10;99.90;;;;;;5112054;28;20040;-80
2021/11/19 06:04:44;;;;;;;0.00;0.00;;;11.10;99.90;;;;;;5111952;28;20443;-80
2021/11/19 06:07:11;;;;;;;0.00;0.00;;;11.10;99.90;;;;;;5095362;28;20048;-80
2021/11/19 06:09:40;;;;;;;0.00;0.00;;;11.10;99.90;;;;;;5111940;28;20040;-80
2021/11/19 06:12:24;;;;;;;0.00;0.00;;;11.10;99.90;;;;;;5112182;28;20063;-80
2021/11/19 06:14:57;;;;;;;0.00;0.00;;;11.10;99.90;;;;;;5134663;28;20035;-81
2021/11/19 06:17:52;;;;;;;0.10;0.10;;;11.20;99.90;;;;;;5125684;28;20116;-80
2021/11/19 06:20:24;;;;;;;0.00;0.00;;;11.20;99.90;;;;;;5113127;28;20909;-81
2021/11/19 06:22:56;;;;;;;0.13;0.13;;;11.20;99.90;;;;;;5118342;28;20035;-81
2021/11/19 06:25:29;;;;;;;0.20;0.10;;;11.20;99.90;;;;;;5148795;28;20051;-81
2021/11/19 06:28:00;;;;;;;0.10;0.10;;;11.20;99.90;;;;;;5132168;28;20089;-81
2021/11/19 06:30:28;;;;;;;0.00;0.00;;;11.20;99.90;;;;;;5115658;28;20040;-82
2021/11/19 06:32:55;;;;;;;0.35;0.20;;;11.20;99.90;;;;;;5132274;28;20118;-82
2021/11/19 06:35:22;;;;;;;0.22;0.10;;;11.20;99.90;;;;;;5131762;28;20488;-82
2021/11/19 06:37:49;;;;;;;0.00;0.00;;;11.20;99.90;;;;;;5112867;28;20089;-81
2021/11/19 06:40:24;;;;;;;0.00;0.00;;;11.20;99.90;;;;;;5113591;28;20488;-81
2021/11/19 06:42:52;;;;;;;0.10;0.10;;;11.20;99.90;;;;;;5121670;28;20054;-81
2021/11/19 06:45:19;;;;;;;0.03;0.03;;;11.20;99.90;;;;;;5095328;28;21672;-80
2021/11/19 06:47:46;;;;;;;0.00;0.00;;;11.30;99.90;;;;;;5119776;28;20039;-79
2021/11/19 06:50:16;;;;;;;0.10;0.10;;;11.20;99.90;;;;;;5110615;28;20181;-81
2021/11/19 06:52:43;;;;;;;0.00;0.00;;;11.20;99.90;;;;;;5123163;28;20067;-81
2021/11/19 06:55:10;;;;;;;0.00;0.00;;;11.20;99.90;;;;;;5094737;28;20125;-81
2021/11/19 06:57:38;;;;;;;0.00;0.00;;;11.30;99.90;;;;;;5111053;28;20333;-81
2021/11/19 07:00:12;;;;;;;0.00;0.00;;;11.20;99.90;;;;;;5127865;28;20510;-80
2021/11/19 07:02:39;;;;;;;0.10;0.10;;;11.30;99.90;;;;;;5110399;28;20040;-80
2021/11/19 07:05:07;;;;;;;0.00;0.00;;;11.30;99.90;;;;;;5093844;28;20059;-81
2021/11/19 07:07:34;;;;;;;0.10;0.10;;;11.30;99.90;;;;;;5112584;28;20160;-81
2021/11/19 07:10:00;;;;;;;0.00;0.00;;;11.30;99.90;;;;;;5118784;28;20034;-81
2021/11/19 07:12:27;;;;;;;0.10;0.10;;;11.30;99.90;;;;;;5110393;28;20040;-80
2021/11/19 07:14:54;;;;;;;0.00;0.00;;;11.30;99.90;;;;;;5097172;28;20119;-81
2021/11/19 07:17:21;;;;;;;0.10;0.10;;;11.30;99.90;;;;;;5097291;28;20096;-81
2021/11/19 07:19:49;;;;;;;0.00;0.00;;;11.30;99.90;;;;;;5135775;28;20040;-81
2021/11/19 07:22:16;;;;;;;0.00;0.00;;;11.40;99.90;;;;;;5110464;28;20077;-80
2021/11/19 07:24:43;;;;;;;0.00;0.00;;;11.30;99.90;;;;;;5093153;28;20107;-81
2021/11/19 07:27:11;;;;;;;0.00;0.00;;;11.40;99.90;;;;;;5116659;28;20032;-81
2021/11/19 07:29:39;;;;;;;0.00;0.00;;;11.40;99.90;;;;;;5122633;28;20039;-81
2021/11/19 07:32:06;;;;;;;0.10;0.10;;;11.40;99.90;;;;;;5121539;28;20134;-80
2021/11/19 07:34:33;;;;;;;0.08;0.08;;;11.40;99.90;;;;;;5099166;28;20118;-81
2021/11/19 07:36:59;;;;;;;0.00;0.00;;;11.40;99.90;;;;;;5104918;28;20073;-80
2021/11/19 07:39:26;;;;;;;0.45;0.20;;;11.40;99.90;;;;;;5099793;28;20040;-81
2021/11/19 07:41:53;;;;;;;0.00;0.00;;;11.40;99.90;;;;;;5110789;28;20073;-82
2021/11/19 07:44:19;;;;;;;0.00;0.00;;;11.40;99.90;;;;;;5113757;28;20377;-82
2021/11/19 07:46:46;;;;;;;0.00;0.00;;;11.40;99.90;;;;;;5108436;28;20183;-83
2021/11/19 07:49:13;;;;;;;0.00;0.00;;;11.50;99.90;;;;;;5105422;28;20040;-82
2021/11/19 07:51:49;;;;;;;0.10;0.10;;;11.50;99.90;;;;;;5126765;28;20028;-81
2021/11/19 07:54:17;;;;;;;0.00;0.00;;;11.50;99.90;;;;;;5126711;28;20036;-82
2021/11/19 07:56:46;;;;;;;0.10;0.10;;;11.50;99.90;;;;;;5126509;28;20048;-81
2021/11/19 07:59:16;;;;;;;0.00;0.00;;;11.50;99.90;;;;;;5110300;28;20044;-81
2021/11/19 08:01:43;;;;;;;0.00;0.00;;;11.50;99.90;;;;;;5126181;28;20051;-81
2021/11/19 08:04:11;;;;;;;0.00;0.00;;;11.50;99.90;;;;;;5109772;28;20566;-82
2021/11/19 08:06:39;;;;;;;0.00;0.00;;;11.50;99.90;;;;;;5126334;28;20052;-82
2021/11/19 08:09:06;;;;;;;0.00;0.00;;;11.60;99.90;;;;;;5110144;28;20040;-81
2021/11/19 08:11:34;;;;;;;0.00;0.00;;;11.60;99.90;;;;;;5125358;28;20039;-82
2021/11/19 08:14:00;;;;;;;0.10;0.10;;;11.60;99.90;;;;;;5109772;28;20052;-82
2021/11/19 08:16:30;;;;;;;0.45;0.10;;;11.60;99.90;;;;;;5109738;28;20089;-82
2021/11/19 08:18:59;;;;;;;0.00;0.00;;;11.60;99.90;;;;;;5105957;28;20040;-82
2021/11/19 08:21:27;;;;;;;0.00;0.00;;;11.60;99.90;;;;;;5097431;28;20062;-82
2021/11/19 08:23:59;;;;;;;0.00;0.00;;;11.60;99.90;;;;;;5129608;28;20131;-81
2021/11/19 08:26:31;;;;;;;0.00;0.00;;;11.70;99.90;;;;;;5134526;28;20637;-82
2021/11/19 08:28:59;;;;;;;0.00;0.00;;;11.70;99.90;;;;;;5112392;28;20066;-82
2021/11/19 08:31:26;;;;;;;0.10;0.10;;;11.70;99.90;;;;;;5128988;28;20495;-82
2021/11/19 08:33:53;;;;;;;0.20;0.20;;;11.70;99.90;;;;;;5127773;28;20062;-81
2021/11/19 08:36:23;;;;;;;0.00;0.00;;;11.70;99.90;;;;;;5113011;28;20406;-82
2021/11/19 08:38:50;;;;;;;0.00;0.00;;;11.70;99.90;;;;;;5146537;28;20403;-82
2021/11/19 08:41:17;;;;;;;0.00;0.00;;;11.70;99.90;;;;;;5109437;28;20049;-82
2021/11/19 08:43:47;;;;;;;0.00;0.00;;;11.70;99.90;;;;;;5101049;28;20147;-82
2021/11/19 08:46:21;;;;;;;0.10;0.10;;;11.70;99.90;;;;;;5118309;28;20539;-82
2021/11/19 08:48:49;;;;;;;0.00;0.00;;;11.80;99.90;;;;;;5134983;28;20134;-82
2021/11/19 08:51:21;;;;;;;0.00;0.00;;;11.80;99.90;;;;;;5093303;28;20127;-82
2021/11/19 08:53:53;;;;;;;0.00;0.00;;;11.70;99.90;;;;;;5132880;28;20040;-82
2021/11/19 08:56:21;;;;;;;0.00;0.00;;;11.80;99.90;;;;;;5126059;28;20066;-82
2021/11/19 08:58:48;;;;;;;0.00;0.00;;;11.80;99.90;;;;;;5092074;28;20736;-82
2021/11/19 09:01:18;;;;;;;0.00;0.00;;;11.80;99.90;;;;;;5120239;28;20078;-82
2021/11/19 09:03:46;;;;;;;0.00;0.00;;;11.80;99.90;;;;;;5133440;28;20515;-82
2021/11/19 09:06:15;;;;;;;0.00;0.00;;;11.80;99.90;;;;;;5117142;28;20052;-82
2021/11/19 09:08:43;;;;;;;0.00;0.00;;;11.90;99.90;;;;;;5133516;28;20581;-82
2021/11/19 09:11:14;;;;;;;0.38;0.38;;;11.90;99.90;;;;;;5117048;28;20031;-81
2021/11/19 09:13:41;;;;;;;0.30;0.30;;;11.90;99.90;;;;;;5150216;28;20494;-82
2021/11/19 09:16:11;;;;;;;0.00;0.00;;;11.90;99.90;;;;;;5117149;28;20039;-82
2021/11/19 09:19:05;;;;;;;0.20;0.20;;;11.90;99.90;;;;;;5133505;28;20040;-81
2021/11/19 09:21:43;;;;;;;0.00;0.00;;;12.00;99.90;;;;;;5133577;28;20039;-82
2021/11/19 09:24:16;;;;;;;0.00;0.00;;;12.00;99.90;;;;;;5127592;28;20043;-83
2021/11/19 09:26:44;;;;;;;0.00;0.00;;;12.00;99.90;;;;;;5126657;28;20032;-82
2021/11/19 09:29:18;;;;;;;0.10;0.10;;;12.00;99.90;;;;;;5113207;28;20512;-82
2021/11/19 09:31:47;;;;;;;0.00;0.00;;;12.10;99.90;;;;;;5140857;28;20035;-82
2021/11/19 09:34:15;;;;;;;0.00;0.00;;;12.10;99.90;;;;;;5114999;28;20043;-81
2021/11/19 09:36:42;;;;;;;0.00;0.00;;;12.10;99.90;;;;;;5114953;28;20036;-81
2021/11/19 09:39:12;;;;;;;0.00;0.00;;;12.50;99.90;;;;;;5102538;28;20518;-81
2021/11/19 09:41:44;;;;;;;0.00;0.00;;;12.10;99.90;;;;;;5133244;28;20039;-82
2021/11/19 09:44:51;;;;;;;0.00;0.00;;;12.10;99.90;;;;;;5128556;28;20488;-82
2021/11/19 09:47:42;;;;;;;0.00;0.00;;;12.10;99.90;;;;;;5120436;28;20051;-81
2021/11/19 09:50:37;;;;;;;0.00;0.00;;;12.10;99.90;;;;;;5128995;28;20036;-82
2021/11/19 09:53:22;;;;;;;0.00;0.00;;;12.10;99.90;;;;;;5145989;28;20043;-81
2021/11/19 09:56:07;;;;;;;0.00;0.00;;;12.10;99.90;;;;;;5130333;28;20048;-82
2021/11/19 09:59:01;;;;;;;0.00;0.00;;;12.10;99.90;;;;;;5126666;28;20083;-81
2021/11/19 10:02:13;;;;;;;0.10;0.10;;;12.20;99.90;;;;;;5124478;28;20117;-81
2021/11/19 10:05:14;;;;;;;0.00;0.00;;;12.20;99.90;;;;;;5099267;28;20051;-82
2021/11/19 10:08:07;;;;;;;0.00;0.00;;;12.30;99.90;;;;;;5112271;28;20069;-82
2021/11/19 10:10:37;;;;;;;0.00;0.00;;;12.30;99.90;;;;;;5119594;28;20047;-81
2021/11/19 10:13:12;;;;;;;0.00;0.00;;;12.30;99.90;;;;;;5129696;28;20067;-81
2021/11/19 10:15:53;;;;;;;0.00;0.00;;;12.30;99.90;;;;;;5133056;28;20043;-80
2021/11/19 10:18:46;;;;;;;0.00;0.00;;;12.40;99.90;;;;;;5121574;28;20496;-81
2021/11/19 10:21:15;;;;;;;0.00;0.00;;;12.40;99.90;;;;;;5122632;28;20071;-81
2021/11/19 10:23:50;;;;;;;0.10;0.10;;;12.40;99.90;;;;;;5126015;28;20039;-81
2021/11/19 10:26:33;;;;;;;0.00;0.00;;;12.50;99.90;;;;;;5132290;28;20399;-81
2021/11/19 10:29:24;;;;;;;0.00;0.00;;;12.50;99.90;;;;;;5127007;28;20036;-80
2021/11/19 10:31:53;;;;;;;0.00;0.00;;;12.50;99.90;;;;;;5111545;28;20085;-82
2021/11/19 10:34:39;;;;;;;0.00;0.00;;;12.50;99.90;;;;;;5112021;28;20047;-82
2021/11/19 10:37:44;;;;;;;0.00;0.00;;;12.60;99.90;;;;;;5120904;28;20044;-81
2021/11/19 10:40:13;;;;;;;0.00;0.00;;;12.60;99.90;;;;;;5128163;28;20044;-80
2021/11/19 10:42:48;;;;;;;0.00;0.00;;;12.60;99.90;;;;;;5130816;28;20039;-82
2021/11/19 10:45:43;;;;;;;0.10;0.10;;;12.60;99.90;;;;;;5131310;28;20130;-80
2021/11/19 10:48:44;;;;;;;0.10;0.10;;;12.60;99.90;;;;;;5129805;28;20051;-80
2021/11/19 10:51:52;;;;;;;0.00;0.00;;;12.60;99.90;;;;;;5131024;28;20146;-80
2021/11/19 10:55:00;;;;;;;0.00;0.00;;;12.60;99.90;;;;;;5134824;28;20052;-81
2021/11/19 10:57:52;;;;;;;0.00;0.00;;;12.60;99.90;;;;;;5087019;28;20040;-80
2021/11/19 11:00:37;;;;;;;0.00;0.00;;;12.60;99.90;;;;;;5089895;28;20032;-81
2021/11/19 11:03:17;;;;;;;0.00;0.00;;;12.70;99.90;;;;;;5106261;28;20063;-81
2021/11/19 11:05:54;;;;;;;0.00;0.00;;;12.70;99.90;;;;;;5110347;28;20117;-82
2021/11/19 11:08:30;;;;;;;0.00;0.00;;;12.70;99.90;;;;;;5111692;28;20044;-81
2021/11/19 11:11:08;;;;;;;0.00;0.00;;;12.80;99.90;;;;;;5148329;28;20428;-81
2021/11/19 11:14:01;;;;;;;0.00;0.00;;;12.80;99.90;;;;;;5136798;28;20040;-81
2021/11/19 11:16:49;;;;;;;0.00;0.00;;;12.80;99.90;;;;;;5139032;28;20049;-81
2021/11/19 11:19:26;;;;;;;0.00;0.00;;;12.80;99.90;;;;;;5110228;28;20496;-82
2021/11/19 11:22:06;;;;;;;0.00;0.00;;;12.80;99.90;;;;;;5119328;28;20035;-81
2021/11/19 11:24:42;;;;;;;0.00;0.00;;;12.80;99.90;;;;;;5117799;28;20082;-80
2021/11/19 11:27:28;;;;;;;0.00;0.00;;;12.80;99.90;;;;;;5112813;28;20038;-81
2021/11/19 11:30:14;;;;;;;0.00;0.00;;;12.80;99.90;;;;;;5125694;28;20123;-81
2021/11/19 11:32:52;;;;;;;0.00;0.00;;;12.70;99.90;;;;;;5147565;28;20415;-81
2021/11/19 11:35:34;;;;;;;0.00;0.00;;;12.80;99.90;;;;;;5115763;28;20176;-81
2021/11/19 11:38:03;;;;;;;0.00;0.00;;;12.80;99.90;;;;;;5126735;28;20043;-82
2021/11/19 11:41:18;;;;;;;0.00;0.00;;;12.80;99.90;;;;;;5110450;28;20039;-82
2021/11/19 11:44:06;;;;;;;0.00;0.00;;;12.80;99.90;;;;;;5114613;28;20063;-81
2021/11/19 11:47:07;;;;;;;0.00;0.00;;;12.80;99.90;;;;;;5130504;28;20038;-82
2021/11/19 11:49:47;;;;;;;0.00;0.00;;;12.80;99.90;;;;;;5127443;28;20138;-82
2021/11/19 11:52:20;;;;;;;0.00;0.00;;;12.80;99.90;;;;;;5122768;28;20032;-82
2021/11/19 11:55:06;;;;;;;0.00;0.00;;;12.80;99.90;;;;;;5127065;28;20032;-82
2021/11/19 11:57:44;;;;;;;0.00;0.00;;;12.80;99.90;;;;;;5129262;28;20032;-82
2021/11/19 12:00:32;;;;;;;0.00;0.00;;;12.80;99.90;;;;;;5147573;28;20047;-82
2021/11/19 12:03:25;;;;;;;0.00;0.00;;;12.80;99.90;;;;;;5130427;28;20126;-81
2021/11/19 12:06:00;;;;;;;0.80;0.30;;;12.90;99.90;;;;;;5147167;28;20048;-83
2021/11/19 12:08:54;;;;;;;0.10;0.10;;;12.90;99.90;;;;;;5130458;28;20092;-83
2021/11/19 12:11:36;;;;;;;0.00;0.00;;;12.80;99.90;;;;;;5146998;28;20053;-82
2021/11/19 12:14:09;;;;;;;0.00;0.00;;;12.80;99.90;;;;;;5130230;28;20090;-81
2021/11/19 12:17:01;;;;;;;0.00;0.00;;;12.80;99.90;;;;;;5130550;28;20754;-81
2021/11/19 12:19:37;;;;;;;0.00;0.00;;;12.80;99.90;;;;;;5130594;28;20054;-83
2021/11/19 12:22:10;;;;;;;0.03;0.03;;;12.90;99.90;;;;;;5147278;28;20040;-82
2021/11/19 12:24:52;;;;;;;0.00;0.00;;;12.90;99.90;;;;;;5130226;28;20416;-83
2021/11/19 12:27:33;;;;;;;0.00;0.00;;;12.90;99.90;;;;;;5129744;28;20043;-82
2021/11/19 12:30:14;;;;;;;0.00;0.00;;;13.00;99.90;;;;;;5130528;28;20035;-83
2021/11/19 12:32:51;;;;;;;0.00;0.00;;;13.00;99.90;;;;;;5130695;28;20146;-83
2021/11/19 12:35:31;;;;;;;0.28;0.25;;;13.10;99.90;;;;;;5130051;28;20121;-83
2021/11/19 12:38:08;;;;;;;0.00;0.00;;;13.10;99.90;;;;;;5149687;28;20036;-81
2021/11/19 12:40:50;;;;;;;0.00;0.00;;;13.20;99.90;;;;;;5130412;28;20063;-82
2021/11/19 12:43:39;;;;;;;0.00;0.00;;;13.10;99.90;;;;;;5129676;28;20092;-81
2021/11/19 12:46:28;;;;;;;0.00;0.00;;;13.00;99.90;;;;;;5129605;28;20105;-82
2021/11/19 12:49:00;;;;;;;0.00;0.00;;;13.00;99.90;;;;;;5130485;28;20036;-81
2021/11/19 12:51:32;;;;;;;0.00;0.00;;;12.90;99.90;;;;;;5130031;28;20514;-83
2021/11/19 12:54:22;;;;;;;0.00;0.00;;;12.90;99.90;;;;;;5130459;28;20046;-81
2021/11/19 12:57:12;;;;;;;0.00;0.00;;;13.00;99.90;;;;;;5130104;28;20040;-82
2021/11/19 13:00:04;;;;;;;0.00;0.00;;;13.00;99.90;;;;;;5130615;28;20101;-81
2021/11/19 13:02:42;;;;;;;0.00;0.00;;;13.10;99.90;;;;;;5147059;28;20051;-81
2021/11/19 13:05:26;;;;;;;0.00;0.00;;;13.10;99.90;;;;;;5129857;28;20055;-82
2021/11/19 13:08:10;;;;;;;0.00;0.00;;;13.20;99.90;;;;;;5130184;28;20058;-82
2021/11/19 13:10:41;;;;;;;0.00;0.00;;;13.20;99.90;;;;;;5130184;28;20062;-82
2021/11/19 13:13:28;;;;;;;0.00;0.00;;;13.20;99.90;;;;;;5130544;28;20045;-81
2021/11/19 13:16:26;;;;;;;0.00;0.00;;;13.20;99.90;;;;;;5129778;28;20040;-81
2021/11/19 13:18:54;;;;;;;0.10;0.10;;;13.20;99.90;;;;;;5126501;28;20048;-82